Time;durP1;ratioP1;P1;durP2;ratioP2;P2;SDS_P1;SDS_P2;PMS_P1;PMS_P2;Temp;Humidity;BMP_temperature;BMP_pressure;BME280_temperature;BME280_humidity;BME280_pressure;Samples;Min_cycle;Max_cycle;Signal;HPM_P1;HPM_P2
2024/04/12 00:02:03;;;;;;;0.30;0.30;;;;;;;;;;5422106;26;20264;-75
2024/04/12 00:04:30;;;;;;;0.33;0.33;;;;;;;;;;5390811;26;20613;-74
2024/04/12 00:07:00;;;;;;;0.30;0.30;;;;;;;;;;5414926;26;20307;-76
2024/04/12 00:09:29;;;;;;;0.30;0.30;;;;;;;;;;5416580;26;20332;-74
2024/04/12 00:11:55;;;;;;;0.30;0.30;;;;;;;;;;5431513;26;20273;-75
2024/04/12 00:14:23;;;;;;;0.30;0.30;;;;;;;;;;5422229;26;20260;-75
2024/04/12 00:16:52;;;;;;;0.30;0.30;;;;;;;;;;5427916;26;20351;-75
2024/04/12 00:19:22;;;;;;;0.30;0.30;;;;;;;;;;5429916;26;20264;-74
2024/04/12 00:21:52;;;;;;;0.30;0.30;;;;;;;;;;5426417;26;20293;-74
2024/04/12 00:24:24;;;;;;;0.30;0.30;;;;;;;;;;5425514;26;20273;-73
2024/04/12 00:26:53;;;;;;;0.50;0.50;;;;;;;;;;5425026;26;20256;-76
2024/04/12 00:29:25;;;;;;;3.70;1.57;;;;;;;;;;5426257;26;20260;-74
2024/04/12 00:32:03;;;;;;;0.43;0.43;;;;;;;;;;5418071;26;20263;-74
2024/04/12 00:34:37;;;;;;;0.40;0.40;;;;;;;;;;5425080;26;20319;-74
2024/04/12 00:37:07;;;;;;;0.20;0.20;;;;;;;;;;5437931;26;20248;-74
2024/04/12 00:39:41;;;;;;;0.30;0.30;;;;;;;;;;5430729;26;20255;-74
2024/04/12 00:42:09;;;;;;;0.30;0.30;;;;;;;;;;5421469;26;20367;-74
2024/04/12 00:45:02;;;;;;;0.30;0.30;;;;;;;;;;5399049;26;20290;-74
2024/04/12 00:47:31;;;;;;;0.30;0.30;;;;;;;;;;5425999;26;20344;-74
2024/04/12 00:50:03;;;;;;;0.40;0.40;;;;;;;;;;5423950;26;20298;-74
2024/04/12 00:52:35;;;;;;;0.50;0.50;;;;;;;;;;5428786;26;20303;-75
2024/04/12 00:55:06;;;;;;;1.13;1.13;;;;;;;;;;5438653;26;20353;-74
2024/04/12 00:57:35;;;;;;;0.30;0.30;;;;;;;;;;5430414;26;20353;-75
2024/04/12 01:00:12;;;;;;;1.13;1.13;;;;;;;;;;5428151;26;20309;-74
2024/04/12 01:02:41;;;;;;;0.57;0.57;;;;;;;;;;5430336;26;20832;-74
2024/04/12 01:05:14;;;;;;;0.60;0.60;;;;;;;;;;5427203;26;20271;-76
2024/04/12 01:07:48;;;;;;;1.27;0.77;;;;;;;;;;5431085;26;20264;-75
2024/04/12 01:10:24;;;;;;;1.67;1.57;;;;;;;;;;5426305;26;20263;-74
2024/04/12 01:13:01;;;;;;;0.30;0.30;;;;;;;;;;5428865;26;20345;-73
2024/04/12 01:15:37;;;;;;;0.30;0.30;;;;;;;;;;5417512;26;20263;-73
2024/04/12 01:18:10;;;;;;;0.30;0.30;;;;;;;;;;5417642;26;20306;-73
2024/04/12 01:20:39;;;;;;;0.23;0.23;;;;;;;;;;5420439;26;20272;-73
2024/04/12 01:23:06;;;;;;;0.40;0.40;;;;;;;;;;5417678;26;20559;-75
2024/04/12 01:25:33;;;;;;;0.77;0.77;;;;;;;;;;5413331;26;20267;-73
2024/04/12 01:28:04;;;;;;;0.30;0.30;;;;;;;;;;5420375;26;20295;-76
2024/04/12 01:30:30;;;;;;;0.57;0.57;;;;;;;;;;5416780;26;20311;-74
2024/04/12 01:32:59;;;;;;;0.30;0.30;;;;;;;;;;5417237;26;20256;-76
2024/04/12 01:35:26;;;;;;;0.30;0.30;;;;;;;;;;5417737;26;20259;-74
2024/04/12 01:37:53;;;;;;;0.40;0.40;;;;;;;;;;5431468;26;20272;-75
2024/04/12 01:40:23;;;;;;;0.30;0.30;;;;;;;;;;5428028;26;20259;-74
2024/04/12 01:42:52;;;;;;;0.20;0.20;;;;;;;;;;5428841;26;20253;-74
2024/04/12 01:45:26;;;;;;;0.30;0.30;;;;;;;;;;5421511;26;20318;-75
2024/04/12 01:47:59;;;;;;;1.40;0.73;;;;;;;;;;5420524;26;20360;-74
2024/04/12 01:50:26;;;;;;;1.47;1.10;;;;;;;;;;5421924;26;20296;-74
2024/04/12 01:53:09;;;;;;;0.90;0.90;;;;;;;;;;5424968;26;20789;-75
2024/04/12 01:55:40;;;;;;;0.30;0.30;;;;;;;;;;5427457;26;20647;-73
2024/04/12 01:58:06;;;;;;;0.30;0.30;;;;;;;;;;5431444;26;20267;-76
2024/04/12 02:00:33;;;;;;;1.90;1.43;;;;;;;;;;5425032;26;20260;-75
2024/04/12 02:03:00;;;;;;;0.30;0.30;;;;;;;;;;5391513;26;20311;-74
2024/04/12 02:05:34;;;;;;;0.40;0.40;;;;;;;;;;5389729;26;20537;-74
2024/04/12 02:08:08;;;;;;;0.73;0.73;;;;;;;;;;5389308;26;20258;-74
2024/04/12 02:10:41;;;;;;;0.30;0.30;;;;;;;;;;5403406;26;20287;-74
2024/04/12 02:13:17;;;;;;;0.57;0.57;;;;;;;;;;5385540;26;20347;-74
2024/04/12 02:15:51;;;;;;;0.40;0.40;;;;;;;;;;5400222;26;20302;-73
2024/04/12 02:18:25;;;;;;;0.30;0.30;;;;;;;;;;5373272;26;20303;-74
2024/04/12 02:21:04;;;;;;;0.50;0.50;;;;;;;;;;5378041;26;20257;-74
2024/04/12 02:23:34;;;;;;;0.50;0.50;;;;;;;;;;5407798;26;20255;-74
2024/04/12 02:26:02;;;;;;;0.30;0.30;;;;;;;;;;5413109;26;21360;-74
2024/04/12 02:28:28;;;;;;;0.60;0.60;;;;;;;;;;5424311;26;20278;-75
2024/04/12 02:31:00;;;;;;;0.30;0.30;;;;;;;;;;5427295;26;20331;-74
2024/04/12 02:33:31;;;;;;;0.30;0.30;;;;;;;;;;5422352;26;20256;-75
2024/04/12 02:36:12;;;;;;;0.30;0.30;;;;;;;;;;5416254;26;20303;-77
2024/04/12 02:38:41;;;;;;;0.40;0.40;;;;;;;;;;5421836;26;20753;-76
2024/04/12 02:41:15;;;;;;;0.40;0.40;;;;;;;;;;5426089;26;20291;-74
2024/04/12 02:43:45;;;;;;;0.30;0.30;;;;;;;;;;5412617;26;20774;-73
2024/04/12 02:46:11;;;;;;;0.77;0.77;;;;;;;;;;5427192;26;20315;-74
2024/04/12 02:48:40;;;;;;;0.50;0.50;;;;;;;;;;5429030;26;20305;-74
2024/04/12 02:51:06;;;;;;;0.30;0.30;;;;;;;;;;5431530;26;20361;-74
2024/04/12 02:53:36;;;;;;;0.50;0.50;;;;;;;;;;5427546;26;20257;-76
2024/04/12 02:56:09;;;;;;;1.60;1.33;;;;;;;;;;5440272;26;20321;-74
2024/04/12 02:58:46;;;;;;;0.30;0.30;;;;;;;;;;5426047;26;20273;-74
2024/04/12 03:01:17;;;;;;;0.30;0.30;;;;;;;;;;5425973;26;20260;-75
2024/04/12 03:03:50;;;;;;;0.30;0.30;;;;;;;;;;5422592;26;20260;-74
2024/04/12 03:06:20;;;;;;;0.30;0.30;;;;;;;;;;5420313;26;20302;-77
2024/04/12 03:08:49;;;;;;;0.53;0.53;;;;;;;;;;5418487;26;20269;-74
2024/04/12 03:11:21;;;;;;;0.30;0.30;;;;;;;;;;5426664;26;20297;-74
2024/04/12 03:13:59;;;;;;;0.40;0.40;;;;;;;;;;5452412;26;20260;-73
2024/04/12 03:16:26;;;;;;;0.50;0.50;;;;;;;;;;5430367;26;20295;-74
2024/04/12 03:18:53;;;;;;;0.30;0.30;;;;;;;;;;5415850;26;20264;-74
2024/04/12 03:21:21;;;;;;;0.50;0.50;;;;;;;;;;5418161;26;20263;-74
2024/04/12 03:23:49;;;;;;;0.43;0.43;;;;;;;;;;5422458;26;20618;-73
2024/04/12 03:26:18;;;;;;;0.30;0.30;;;;;;;;;;5426433;26;20345;-74
2024/04/12 03:28:46;;;;;;;0.30;0.30;;;;;;;;;;5431168;26;20299;-74
2024/04/12 03:31:12;;;;;;;0.30;0.30;;;;;;;;;;5450761;26;20311;-74
2024/04/12 03:33:42;;;;;;;0.30;0.30;;;;;;;;;;5413752;26;20256;-73
2024/04/12 03:42:08;;;;;;;0.33;0.33;;;;;;;;;;5425298;26;20264;-74
2024/04/12 03:44:42;;;;;;;0.30;0.30;;;;;;;;;;5419273;26;20279;-74
2024/04/12 03:47:09;;;;;;;0.40;0.40;;;;;;;;;;5416831;26;20282;-74
2024/04/12 03:49:40;;;;;;;0.30;0.30;;;;;;;;;;5413806;26;20644;-74
2024/04/12 03:52:12;;;;;;;0.30;0.30;;;;;;;;;;5421950;26;20256;-74
2024/04/12 03:54:42;;;;;;;0.30;0.30;;;;;;;;;;5421944;26;20263;-74
2024/04/12 03:57:09;;;;;;;0.30;0.30;;;;;;;;;;5418725;26;20359;-74
2024/04/12 03:59:38;;;;;;;0.30;0.30;;;;;;;;;;5412559;26;20260;-73
2024/04/12 04:02:08;;;;;;;1.80;1.37;;;;;;;;;;5428339;26;20291;-74
2024/04/12 04:04:44;;;;;;;0.30;0.30;;;;;;;;;;5430038;26;20252;-76
2024/04/12 04:07:15;;;;;;;0.63;0.60;;;;;;;;;;5430215;26;20618;-75
2024/04/12 04:09:45;;;;;;;0.40;0.40;;;;;;;;;;5426685;26;20252;-75
2024/04/12 04:12:17;;;;;;;0.70;0.70;;;;;;;;;;5427296;26;20267;-74
2024/04/12 04:14:48;;;;;;;0.30;0.30;;;;;;;;;;5427873;26;20788;-74
2024/04/12 04:17:18;;;;;;;0.30;0.30;;;;;;;;;;5429445;26;20255;-74
2024/04/12 04:19:45;;;;;;;0.30;0.30;;;;;;;;;;5421101;26;20251;-74
2024/04/12 04:22:22;;;;;;;0.30;0.30;;;;;;;;;;5413179;26;20251;-74
2024/04/12 04:24:52;;;;;;;0.27;0.27;;;;;;;;;;5392259;26;20256;-75
2024/04/12 04:27:23;;;;;;;0.30;0.30;;;;;;;;;;5428453;26;20255;-74
2024/04/12 04:29:51;;;;;;;0.30;0.30;;;;;;;;;;5426402;26;20256;-74
2024/04/12 04:32:21;;;;;;;0.30;0.30;;;;;;;;;;5429043;26;20844;-74
2024/04/12 04:34:54;;;;;;;0.37;0.37;;;;;;;;;;5422501;26;20256;-74
2024/04/12 04:37:21;;;;;;;0.30;0.30;;;;;;;;;;5426066;26;20259;-74
2024/04/12 04:40:02;;;;;;;0.23;0.23;;;;;;;;;;5429265;26;20333;-75
2024/04/12 04:42:29;;;;;;;0.73;0.73;;;;;;;;;;5425242;26;20302;-76
2024/04/12 04:44:55;;;;;;;0.40;0.40;;;;;;;;;;5426644;26;20256;-75
2024/04/12 04:47:23;;;;;;;0.30;0.30;;;;;;;;;;5426281;26;20367;-75
2024/04/12 04:49:50;;;;;;;0.50;0.50;;;;;;;;;;5426047;26;20299;-75
2024/04/12 04:52:17;;;;;;;0.37;0.37;;;;;;;;;;5422532;26;20257;-75
2024/04/12 04:54:44;;;;;;;0.60;0.60;;;;;;;;;;5418128;26;20690;-75
2024/04/12 04:57:12;;;;;;;0.30;0.30;;;;;;;;;;5427224;26;20662;-75
2024/04/12 04:59:44;;;;;;;0.30;0.30;;;;;;;;;;5426000;26;20256;-75
2024/04/12 05:02:12;;;;;;;0.30;0.30;;;;;;;;;;5424511;26;20323;-78
2024/04/12 05:04:39;;;;;;;0.30;0.30;;;;;;;;;;5386303;26;21240;-76
2024/04/12 05:07:07;;;;;;;0.30;0.30;;;;;;;;;;5384741;26;20772;-75
2024/04/12 05:09:33;;;;;;;0.23;0.23;;;;;;;;;;5376825;26;20262;-75
2024/04/12 05:11:59;;;;;;;0.30;0.30;;;;;;;;;;5384836;26;20306;-74
2024/04/12 05:17:09;;;;;;;0.30;0.30;;;;;;;;;;5387429;26;20271;-74
2024/04/12 05:19:40;;;;;;;0.47;0.47;;;;;;;;;;5391641;26;20313;-74
2024/04/12 05:22:09;;;;;;;0.47;0.47;;;;;;;;;;5401443;26;20292;-73
2024/04/12 05:24:36;;;;;;;0.30;0.30;;;;;;;;;;5390244;26;20273;-73
2024/04/12 05:27:04;;;;;;;0.30;0.30;;;;;;;;;;5394352;26;20250;-74
2024/04/12 05:29:31;;;;;;;0.20;0.20;;;;;;;;;;5395232;26;20268;-74
2024/04/12 05:31:59;;;;;;;0.30;0.30;;;;;;;;;;5388021;26;20308;-74
2024/04/12 05:34:26;;;;;;;0.30;0.30;;;;;;;;;;5394839;26;20299;-73
2024/04/12 05:37:02;;;;;;;0.40;0.40;;;;;;;;;;5392848;26;20258;-73
2024/04/12 05:39:36;;;;;;;0.60;0.60;;;;;;;;;;5394078;26;20258;-74
2024/04/12 05:42:09;;;;;;;0.30;0.30;;;;;;;;;;5392803;26;20250;-74
2024/04/12 05:44:39;;;;;;;0.37;0.37;;;;;;;;;;5391603;26;20321;-74
2024/04/12 05:47:09;;;;;;;0.30;0.30;;;;;;;;;;5391997;26;20256;-74
2024/04/12 05:49:40;;;;;;;0.43;0.43;;;;;;;;;;5389868;26;20265;-76
2024/04/12 05:52:07;;;;;;;0.30;0.30;;;;;;;;;;5389976;26;20268;-74
2024/04/12 05:54:39;;;;;;;0.60;0.60;;;;;;;;;;5426563;26;20904;-73
2024/04/12 05:57:07;;;;;;;0.30;0.30;;;;;;;;;;5429359;26;20289;-73
2024/04/12 05:59:35;;;;;;;0.30;0.30;;;;;;;;;;5426904;26;20269;-73
2024/04/12 06:02:05;;;;;;;0.37;0.37;;;;;;;;;;5440162;26;20316;-73
2024/04/12 06:04:32;;;;;;;0.30;0.30;;;;;;;;;;5449808;26;20300;-74
2024/04/12 06:07:18;;;;;;;1.70;0.47;;;;;;;;;;5431422;26;20286;-73
2024/04/12 06:09:47;;;;;;;0.63;0.63;;;;;;;;;;5427255;26;20350;-74
2024/04/12 06:12:16;;;;;;;0.40;0.40;;;;;;;;;;5431596;26;20324;-74
2024/04/12 06:14:45;;;;;;;0.30;0.30;;;;;;;;;;5425442;26;20348;-74
2024/04/12 06:17:12;;;;;;;0.40;0.40;;;;;;;;;;5427015;26;20290;-73
2024/04/12 06:19:38;;;;;;;0.30;0.30;;;;;;;;;;5429522;26;20264;-74
2024/04/12 06:22:15;;;;;;;0.30;0.30;;;;;;;;;;5428133;26;20302;-73
2024/04/12 06:25:08;;;;;;;0.30;0.30;;;;;;;;;;5432488;26;20315;-73
2024/04/12 06:27:35;;;;;;;0.20;0.20;;;;;;;;;;5426326;26;20372;-74
2024/04/12 06:30:02;;;;;;;0.30;0.30;;;;;;;;;;5423510;26;22143;-74
2024/04/12 06:32:29;;;;;;;0.30;0.30;;;;;;;;;;5421298;26;20600;-74
2024/04/12 06:34:56;;;;;;;0.30;0.30;;;;;;;;;;5419074;26;20273;-74
2024/04/12 06:37:22;;;;;;;0.43;0.43;;;;;;;;;;5385651;26;20794;-73
2024/04/12 06:39:49;;;;;;;0.27;0.27;;;;;;;;;;5390345;26;20262;-74
2024/04/12 06:42:17;;;;;;;0.53;0.53;;;;;;;;;;5388936;26;20265;-74
2024/04/12 06:44:50;;;;;;;0.30;0.30;;;;;;;;;;5391579;26;20269;-75
2024/04/12 06:47:19;;;;;;;0.30;0.30;;;;;;;;;;5386675;26;20614;-73
2024/04/12 06:49:49;;;;;;;0.30;0.30;;;;;;;;;;5389253;26;20265;-74
2024/04/12 06:52:20;;;;;;;0.30;0.30;;;;;;;;;;5388730;26;20991;-74
2024/04/12 06:54:48;;;;;;;0.30;0.30;;;;;;;;;;5425052;26;20259;-74
2024/04/12 06:57:17;;;;;;;0.40;0.40;;;;;;;;;;5428439;26;20668;-73
2024/04/12 06:59:53;;;;;;;0.40;0.40;;;;;;;;;;5428277;26;20296;-73
2024/04/12 07:02:24;;;;;;;0.37;0.37;;;;;;;;;;5436161;26;20252;-74
2024/04/12 07:04:56;;;;;;;0.30;0.30;;;;;;;;;;5429128;26;20322;-74
2024/04/12 07:07:23;;;;;;;0.30;0.30;;;;;;;;;;5422002;26;20741;-73
2024/04/12 07:10:01;;;;;;;0.43;0.43;;;;;;;;;;5424812;26;20637;-74
2024/04/12 07:12:31;;;;;;;0.77;0.77;;;;;;;;;;5426146;26;20260;-75
2024/04/12 07:14:58;;;;;;;0.30;0.30;;;;;;;;;;5427179;26;20327;-73
2024/04/12 07:17:25;;;;;;;1.47;1.47;;;;;;;;;;5439190;26;20255;-74
2024/04/12 07:19:54;;;;;;;0.33;0.33;;;;;;;;;;5421310;26;20263;-75
2024/04/12 07:22:22;;;;;;;0.40;0.40;;;;;;;;;;5426404;26;20822;-73
2024/04/12 07:24:50;;;;;;;0.30;0.30;;;;;;;;;;5427373;26;20316;-73
2024/04/12 07:27:18;;;;;;;0.30;0.30;;;;;;;;;;5428724;26;20259;-73
2024/04/12 07:29:46;;;;;;;0.30;0.30;;;;;;;;;;5426538;26;20357;-73
2024/04/12 07:32:22;;;;;;;0.33;0.33;;;;;;;;;;5425039;26;20259;-73
2024/04/12 07:34:50;;;;;;;0.40;0.40;;;;;;;;;;5422594;26;20711;-73
2024/04/12 07:37:28;;;;;;;0.97;0.87;;;;;;;;;;5427486;26;20267;-73
2024/04/12 07:42:46;;;;;;;0.40;0.40;;;;;;;;;;5424498;26;20294;-75
2024/04/12 07:45:23;;;;;;;1.60;0.87;;;;;;;;;;5423042;26;20366;-72
2024/04/12 07:48:11;;;;;;;0.40;0.40;;;;;;;;;;5420723;26;20748;-76
2024/04/12 07:50:39;;;;;;;1.37;1.37;;;;;;;;;;5424770;26;20251;-74
2024/04/12 07:53:10;;;;;;;1.00;1.00;;;;;;;;;;5412715;26;20299;-73
2024/04/12 07:55:39;;;;;;;0.40;0.40;;;;;;;;;;5387417;26;20291;-73
2024/04/12 07:58:12;;;;;;;0.73;0.60;;;;;;;;;;5385669;26;20312;-73
2024/04/12 08:00:48;;;;;;;0.30;0.30;;;;;;;;;;5395227;26;20311;-74
2024/04/12 08:03:15;;;;;;;0.73;0.73;;;;;;;;;;5425356;26;20256;-73
2024/04/12 08:06:03;;;;;;;0.30;0.30;;;;;;;;;;5429239;26;20339;-73
2024/04/12 08:08:43;;;;;;;0.50;0.50;;;;;;;;;;5427694;26;20722;-74
2024/04/12 08:14:06;;;;;;;0.40;0.40;;;;;;;;;;5428489;26;20252;-74
2024/04/12 08:16:37;;;;;;;0.47;0.47;;;;;;;;;;5423793;26;20690;-74
2024/04/12 08:19:12;;;;;;;0.20;0.20;;;;;;;;;;5428399;26;20296;-73
2024/04/12 08:21:41;;;;;;;0.77;0.77;;;;;;;;;;5426070;26;20297;-74
2024/04/12 08:24:22;;;;;;;3.80;1.23;;;;;;;;;;5429377;26;20264;-74
2024/04/12 08:26:52;;;;;;;0.40;0.40;;;;;;;;;;5423833;26;20364;-74
2024/04/12 08:29:23;;;;;;;0.80;0.80;;;;;;;;;;5425892;26;20341;-74
2024/04/12 08:31:59;;;;;;;0.30;0.30;;;;;;;;;;5423998;26;20323;-73
2024/04/12 08:34:31;;;;;;;0.40;0.40;;;;;;;;;;5421890;26;20259;-74
2024/04/12 08:37:02;;;;;;;0.30;0.30;;;;;;;;;;5424938;26;20660;-73
2024/04/12 08:39:30;;;;;;;2.00;0.60;;;;;;;;;;5424067;26;20432;-74
2024/04/12 08:41:59;;;;;;;0.43;0.43;;;;;;;;;;5425020;26;20310;-73
2024/04/12 08:44:29;;;;;;;0.40;0.40;;;;;;;;;;5416577;26;20295;-73
2024/04/12 08:47:15;;;;;;;0.43;0.43;;;;;;;;;;5423869;26;20792;-75
2024/04/12 08:49:45;;;;;;;0.33;0.33;;;;;;;;;;5426632;26;20265;-74
2024/04/12 08:52:28;;;;;;;0.60;0.60;;;;;;;;;;5423567;26;20747;-74
2024/04/12 08:54:59;;;;;;;0.40;0.40;;;;;;;;;;5428894;26;20356;-73
2024/04/12 08:57:26;;;;;;;0.50;0.50;;;;;;;;;;5429766;26;20303;-74
2024/04/12 08:59:58;;;;;;;0.40;0.40;;;;;;;;;;5431017;26;20287;-73
2024/04/12 09:02:40;;;;;;;0.50;0.50;;;;;;;;;;5426817;26;20259;-73
2024/04/12 09:05:09;;;;;;;0.40;0.40;;;;;;;;;;5425400;26;20826;-73
2024/04/12 09:07:42;;;;;;;0.47;0.47;;;;;;;;;;5426792;26;20783;-74
2024/04/12 09:10:16;;;;;;;0.40;0.40;;;;;;;;;;5424233;26;20259;-74
2024/04/12 09:12:44;;;;;;;0.95;0.57;;;;;;;;;;5425252;26;20271;-75
2024/04/12 09:15:23;;;;;;;1.63;1.38;;;;;;;;;;5426584;26;20304;-73
2024/04/12 09:18:01;;;;;;;0.65;0.63;;;;;;;;;;5429005;26;20285;-73
2024/04/12 09:20:34;;;;;;;0.57;0.57;;;;;;;;;;5424747;26;20261;-74
2024/04/12 09:23:16;;;;;;;0.95;0.95;;;;;;;;;;5428669;26;20264;-74
2024/04/12 09:25:54;;;;;;;0.63;0.63;;;;;;;;;;5430139;26;20604;-74
2024/04/12 09:28:26;;;;;;;0.38;0.38;;;;;;;;;;5429586;26;20604;-74
2024/04/12 09:36:56;;;;;;;0.75;0.75;;;;;;;;;;5426254;26;20251;-73
2024/04/12 09:39:23;;;;;;;0.60;0.60;;;;;;;;;;5432504;26;20256;-73
2024/04/12 09:42:03;;;;;;;0.80;0.80;;;;;;;;;;5432186;26;20992;-74
2024/04/12 09:44:48;;;;;;;1.50;0.73;;;;;;;;;;5425279;26;20701;-74
2024/04/12 10:38:16;;;;;;;0.60;0.60;;;;;;;;;;5431567;26;20721;-74
2024/04/12 10:41:07;;;;;;;0.47;0.47;;;;;;;;;;5405841;26;20257;-74
2024/04/12 10:43:35;;;;;;;0.32;0.32;;;;;;;;;;5429186;26;20306;-74
2024/04/12 10:46:04;;;;;;;0.65;0.65;;;;;;;;;;5429171;26;20333;-73
2024/04/12 10:48:33;;;;;;;0.80;0.80;;;;;;;;;;5428980;26;20658;-74
2024/04/12 10:51:00;;;;;;;1.33;0.98;;;;;;;;;;5424669;26;20843;-74
2024/04/12 10:53:29;;;;;;;0.50;0.50;;;;;;;;;;5429378;26;20269;-74
2024/04/12 10:55:55;;;;;;;1.58;0.85;;;;;;;;;;5428117;26;22326;-74
2024/04/12 10:58:28;;;;;;;0.50;0.50;;;;;;;;;;5426992;26;20384;-74
2024/04/12 11:01:00;;;;;;;0.40;0.40;;;;;;;;;;5439280;26;20295;-74
2024/04/12 11:03:29;;;;;;;0.47;0.47;;;;;;;;;;5430157;26;20252;-74
2024/04/12 11:06:17;;;;;;;1.17;1.15;;;;;;;;;;5428261;26;20303;-74
2024/04/12 11:08:46;;;;;;;2.05;1.38;;;;;;;;;;5432330;26;20253;-74
2024/04/12 11:11:19;;;;;;;5.07;2.03;;;;;;;;;;5432414;26;20302;-74
2024/04/12 11:13:47;;;;;;;0.90;0.90;;;;;;;;;;5433438;26;20260;-74
2024/04/12 11:33:19;;;;;;;0.70;0.70;;;;;;;;;;5386726;26;20272;-74
2024/04/12 11:35:55;;;;;;;0.38;0.38;;;;;;;;;;5391864;26;20260;-74
2024/04/12 11:38:22;;;;;;;0.98;0.98;;;;;;;;;;5390120;26;20292;-74
2024/04/12 11:40:48;;;;;;;0.70;0.70;;;;;;;;;;5427371;26;20252;-74
2024/04/12 11:43:15;;;;;;;0.52;0.52;;;;;;;;;;5427115;26;20328;-72
2024/04/12 11:45:42;;;;;;;0.82;0.82;;;;;;;;;;5429238;26;20271;-71
2024/04/12 11:48:31;;;;;;;1.05;1.05;;;;;;;;;;5433755;26;20675;-72
2024/04/12 11:50:59;;;;;;;0.77;0.77;;;;;;;;;;5428528;26;20764;-72
2024/04/12 11:53:26;;;;;;;0.63;0.63;;;;;;;;;;5441396;26;20295;-72
2024/04/12 11:55:52;;;;;;;0.77;0.77;;;;;;;;;;5429710;26;20320;-72
2024/04/12 11:58:22;;;;;;;0.57;0.57;;;;;;;;;;5428789;26;20263;-71
2024/04/12 12:00:52;;;;;;;0.88;0.75;;;;;;;;;;5426039;26;20257;-72
2024/04/12 12:03:20;;;;;;;0.82;0.82;;;;;;;;;;5424577;26;20260;-72
2024/04/12 12:05:52;;;;;;;0.90;0.90;;;;;;;;;;5430285;26;20290;-72
2024/04/12 12:08:32;;;;;;;2.25;1.63;;;;;;;;;;5430648;26;20290;-71
2024/04/12 12:10:59;;;;;;;0.60;0.60;;;;;;;;;;5423512;26;20633;-72
2024/04/12 12:13:26;;;;;;;0.68;0.68;;;;;;;;;;5446831;26;20269;-72
2024/04/12 12:15:52;;;;;;;2.05;1.38;;;;;;;;;;5424029;26;20316;-71
2024/04/12 12:18:19;;;;;;;0.55;0.55;;;;;;;;;;5428542;26;20623;-72
2024/04/12 12:20:46;;;;;;;0.60;0.60;;;;;;;;;;5426486;26;20259;-72
2024/04/12 12:23:13;;;;;;;0.80;0.80;;;;;;;;;;5425040;26;20393;-72
2024/04/12 12:25:41;;;;;;;0.50;0.50;;;;;;;;;;5430589;26;20632;-72
2024/04/12 12:28:32;;;;;;;0.60;0.60;;;;;;;;;;5433297;26;20794;-71
2024/04/12 12:30:59;;;;;;;1.90;0.95;;;;;;;;;;5433057;26;20268;-72
2024/04/12 12:33:31;;;;;;;0.60;0.60;;;;;;;;;;5432530;26;20310;-72
2024/04/12 12:35:58;;;;;;;0.40;0.40;;;;;;;;;;5432412;26;20255;-71
2024/04/12 12:38:25;;;;;;;0.93;0.90;;;;;;;;;;5433253;26;20259;-72
2024/04/12 12:40:53;;;;;;;0.70;0.70;;;;;;;;;;5430150;26;20348;-71
2024/04/12 12:43:20;;;;;;;0.73;0.73;;;;;;;;;;5430458;26;20259;-71
2024/04/12 12:45:49;;;;;;;0.43;0.43;;;;;;;;;;5427001;26;20272;-72
2024/04/12 12:48:21;;;;;;;0.75;0.75;;;;;;;;;;5431951;26;20303;-72
2024/04/12 12:50:50;;;;;;;0.47;0.47;;;;;;;;;;5431600;26;20310;-72
2024/04/12 12:53:20;;;;;;;0.75;0.75;;;;;;;;;;5431093;26;20262;-72
2024/04/12 12:55:47;;;;;;;0.68;0.68;;;;;;;;;;5432383;26;20260;-72
2024/04/12 12:58:18;;;;;;;0.73;0.73;;;;;;;;;;5433251;26;20754;-71
2024/04/12 13:00:47;;;;;;;0.60;0.60;;;;;;;;;;5433350;26;20261;-72
2024/04/12 13:03:17;;;;;;;0.93;0.70;;;;;;;;;;5431904;26;20948;-72
2024/04/12 13:05:45;;;;;;;0.70;0.70;;;;;;;;;;5429790;26;20298;-72
2024/04/12 13:08:15;;;;;;;0.90;0.90;;;;;;;;;;5428145;26;20268;-72
2024/04/12 13:10:48;;;;;;;1.00;0.85;;;;;;;;;;5428509;26;20306;-72
2024/04/12 13:13:21;;;;;;;0.52;0.52;;;;;;;;;;5426875;26;20255;-72
2024/04/12 13:15:54;;;;;;;0.68;0.68;;;;;;;;;;5429420;26;20310;-73
2024/04/12 13:18:22;;;;;;;0.68;0.68;;;;;;;;;;5415487;26;20259;-72
2024/04/12 13:20:52;;;;;;;0.60;0.60;;;;;;;;;;5385405;26;20351;-72
2024/04/12 13:23:19;;;;;;;0.52;0.52;;;;;;;;;;5386618;26;20258;-72
2024/04/12 13:25:45;;;;;;;0.60;0.50;;;;;;;;;;5390669;26;20316;-72
2024/04/12 13:28:12;;;;;;;7.88;0.80;;;;;;;;;;5386362;26;20305;-72
2024/04/12 13:30:47;;;;;;;0.63;0.63;;;;;;;;;;5427073;26;20778;-72
2024/04/12 13:33:14;;;;;;;0.30;0.30;;;;;;;;;;5426819;26;20260;-72
2024/04/12 13:35:41;;;;;;;0.50;0.50;;;;;;;;;;5424931;26;20765;-72
2024/04/12 13:38:14;;;;;;;0.40;0.40;;;;;;;;;;5431512;26;20255;-72
2024/04/12 13:40:45;;;;;;;0.70;0.70;;;;;;;;;;5432661;26;20734;-72
2024/04/12 13:43:16;;;;;;;0.40;0.40;;;;;;;;;;5429803;26;20312;-73
2024/04/12 13:51:18;;;;;;;0.90;0.90;;;;;;;;;;5427876;26;20303;-73
2024/04/12 13:53:50;;;;;;;0.40;0.40;;;;;;;;;;5432661;26;20257;-72
2024/04/12 13:56:27;;;;;;;0.63;0.63;;;;;;;;;;5425476;26;20271;-72
2024/04/12 13:59:01;;;;;;;0.85;0.77;;;;;;;;;;5399140;26;20321;-72
2024/04/12 14:01:29;;;;;;;0.52;0.52;;;;;;;;;;5425076;26;20299;-74
2024/04/12 14:04:04;;;;;;;0.65;0.65;;;;;;;;;;5420720;26;20765;-74
2024/04/12 14:06:34;;;;;;;0.40;0.40;;;;;;;;;;5425571;26;20298;-74
2024/04/12 14:09:02;;;;;;;0.50;0.50;;;;;;;;;;5428813;26;20327;-73
2024/04/12 14:11:28;;;;;;;0.50;0.50;;;;;;;;;;5437263;26;20303;-74
2024/04/12 14:13:55;;;;;;;0.43;0.43;;;;;;;;;;5425141;26;20259;-74
2024/04/12 14:16:28;;;;;;;0.40;0.40;;;;;;;;;;5424247;26;20263;-74
2024/04/12 14:18:55;;;;;;;0.40;0.40;;;;;;;;;;5427982;26;20248;-74
2024/04/12 14:21:23;;;;;;;1.30;1.05;;;;;;;;;;5426943;26;20805;-74
2024/04/12 14:23:49;;;;;;;1.60;1.20;;;;;;;;;;5424148;26;20251;-74
2024/04/12 14:26:16;;;;;;;0.70;0.68;;;;;;;;;;5448524;26;20287;-75
2024/04/12 14:28:44;;;;;;;0.30;0.30;;;;;;;;;;5431952;26;20714;-74
2024/04/12 14:31:11;;;;;;;0.40;0.40;;;;;;;;;;5426832;26;20345;-74
2024/04/12 14:33:38;;;;;;;0.45;0.45;;;;;;;;;;5423628;26;20290;-74
2024/04/12 14:36:06;;;;;;;0.50;0.50;;;;;;;;;;5428404;26;20252;-74
2024/04/12 14:38:38;;;;;;;0.50;0.50;;;;;;;;;;5422685;26;20319;-75
2024/04/12 14:41:07;;;;;;;0.63;0.63;;;;;;;;;;5428161;26;20729;-74
2024/04/12 14:43:34;;;;;;;0.85;0.85;;;;;;;;;;5423250;26;20307;-74
2024/04/12 14:46:07;;;;;;;0.40;0.40;;;;;;;;;;5428844;26;20257;-74
2024/04/12 14:48:38;;;;;;;3.05;1.42;;;;;;;;;;5428681;26;20378;-74
2024/04/12 14:51:05;;;;;;;0.50;0.50;;;;;;;;;;5424785;26;20252;-74
2024/04/12 14:53:32;;;;;;;9.00;0.73;;;;;;;;;;5422301;26;20299;-75
2024/04/12 14:55:59;;;;;;;0.40;0.40;;;;;;;;;;5428915;26;20305;-74
2024/04/12 14:58:28;;;;;;;0.50;0.50;;;;;;;;;;5429430;26;20255;-75
2024/04/12 15:00:55;;;;;;;0.57;0.57;;;;;;;;;;5427231;26;20287;-74
2024/04/12 15:52:40;;;;;;;0.20;0.20;;;;;;;;;;5426387;26;20311;-72
2024/04/12 15:55:16;;;;;;;0.30;0.30;;;;;;;;;;5427687;26;20260;-72
2024/04/12 16:11:44;;;;;;;0.52;0.52;;;;;;;;;;5430547;26;20358;-72
2024/04/12 16:14:10;;;;;;;0.98;0.88;;;;;;;;;;5425752;26;20256;-72
2024/04/12 16:16:37;;;;;;;0.47;0.47;;;;;;;;;;5428871;26;20777;-72
2024/04/12 16:19:04;;;;;;;0.30;0.30;;;;;;;;;;5426551;26;20307;-72
2024/04/12 16:21:31;;;;;;;0.43;0.43;;;;;;;;;;5424903;26;20302;-73
2024/04/12 16:23:57;;;;;;;0.50;0.50;;;;;;;;;;5427542;26;20248;-72
2024/04/12 16:26:24;;;;;;;0.93;0.93;;;;;;;;;;5424943;26;20259;-73
2024/04/12 16:28:50;;;;;;;0.43;0.43;;;;;;;;;;5428075;26;20304;-72
2024/04/12 16:31:17;;;;;;;0.40;0.40;;;;;;;;;;5426908;26;20331;-73
2024/04/12 16:33:43;;;;;;;0.40;0.40;;;;;;;;;;5433637;26;20786;-73
2024/04/12 16:36:10;;;;;;;0.40;0.40;;;;;;;;;;5430718;26;20297;-73
2024/04/12 16:38:38;;;;;;;0.40;0.40;;;;;;;;;;5430117;26;20261;-72
2024/04/12 16:41:06;;;;;;;0.63;0.57;;;;;;;;;;5425789;26;20319;-73
2024/04/12 16:43:32;;;;;;;0.40;0.40;;;;;;;;;;5427980;26;20298;-73
2024/04/12 16:45:59;;;;;;;0.38;0.38;;;;;;;;;;5428796;26;21162;-73
2024/04/12 16:48:27;;;;;;;0.30;0.30;;;;;;;;;;5427542;26;20359;-73
2024/04/12 16:50:55;;;;;;;0.35;0.35;;;;;;;;;;5423212;26;20272;-74
2024/04/12 16:53:21;;;;;;;0.73;0.73;;;;;;;;;;5417634;26;20264;-72
2024/04/12 16:55:48;;;;;;;0.55;0.55;;;;;;;;;;5425729;26;20304;-73
2024/04/12 16:58:14;;;;;;;0.63;0.63;;;;;;;;;;5425230;26;20306;-74
2024/04/12 17:00:41;;;;;;;0.40;0.40;;;;;;;;;;5425953;26;20684;-72
2024/04/12 17:03:08;;;;;;;0.55;0.55;;;;;;;;;;5430157;26;20256;-73
2024/04/12 17:05:36;;;;;;;1.10;0.57;;;;;;;;;;5427812;26;20607;-72
2024/04/12 17:08:03;;;;;;;7.47;0.65;;;;;;;;;;5432737;26;20257;-72
2024/04/12 17:10:31;;;;;;;0.43;0.43;;;;;;;;;;5438525;26;20264;-73
2024/04/12 17:12:58;;;;;;;0.40;0.40;;;;;;;;;;5426709;26;20261;-72
2024/04/12 17:15:25;;;;;;;0.40;0.40;;;;;;;;;;5432915;26;20263;-73
2024/04/12 17:17:52;;;;;;;0.50;0.50;;;;;;;;;;5428120;26;20255;-72
2024/04/12 17:20:19;;;;;;;0.60;0.60;;;;;;;;;;5431677;26;20293;-73
2024/04/12 17:22:46;;;;;;;0.30;0.30;;;;;;;;;;5430257;26;20649;-73
2024/04/12 17:25:13;;;;;;;0.30;0.30;;;;;;;;;;5427011;26;20257;-73
2024/04/12 17:27:43;;;;;;;0.30;0.30;;;;;;;;;;5429752;26;20275;-73
2024/04/12 17:30:11;;;;;;;0.80;0.77;;;;;;;;;;5432050;26;20293;-73
2024/04/12 17:32:40;;;;;;;0.40;0.40;;;;;;;;;;5431331;26;20267;-73
2024/04/12 17:35:10;;;;;;;0.50;0.50;;;;;;;;;;5431612;26;20298;-73
2024/04/12 17:37:37;;;;;;;0.28;0.28;;;;;;;;;;5433237;26;20753;-73
2024/04/12 17:40:05;;;;;;;0.45;0.45;;;;;;;;;;5432187;26;20256;-73